createdAt,value
2019-04-12T00:00:41.664Z,99.99
2019-04-12T00:01:41.580Z,99.99
2019-04-12T00:03:34.342Z,99.99
2019-04-12T00:04:34.260Z,99.99
2019-04-12T00:06:27.130Z,99.99
2019-04-12T00:07:26.983Z,99.99
2019-04-12T00:09:19.818Z,99.99
2019-04-12T00:10:19.659Z,99.99
2019-04-12T00:12:12.493Z,99.99
2019-04-12T00:13:12.405Z,99.99
2019-04-12T00:15:05.194Z,99.99
2019-04-12T00:16:05.105Z,99.99
2019-04-12T00:17:57.865Z,99.99
2019-04-12T00:18:57.793Z,99.99
2019-04-12T00:20:50.646Z,99.99
2019-04-12T00:21:50.490Z,99.99
2019-04-12T00:23:45.690Z,99.99
2019-04-12T00:24:46.879Z,99.99
2019-04-12T00:26:36.002Z,99.99
2019-04-12T00:27:35.882Z,99.99
2019-04-12T00:29:28.819Z,99.99
2019-04-12T00:30:28.564Z,99.99
2019-04-12T00:32:22.098Z,99.99
2019-04-12T00:33:22.742Z,99.99
2019-04-12T00:35:14.006Z,99.99
2019-04-12T00:36:13.944Z,99.99
2019-04-12T00:38:06.681Z,99.99
2019-04-12T00:39:06.608Z,99.99
2019-04-12T00:41:01.970Z,99.99
2019-04-12T00:42:00.043Z,99.99
2019-04-12T00:43:52.063Z,99.99
2019-04-12T00:44:51.998Z,99.99
2019-04-12T00:46:44.798Z,99.99
2019-04-12T00:47:44.680Z,99.99
2019-04-12T00:49:37.944Z,99.99
2019-04-12T00:50:41.254Z,99.99
2019-04-12T00:52:30.143Z,99.99
2019-04-12T00:53:30.064Z,99.99
2019-04-12T00:55:22.853Z,99.99
2019-04-12T00:56:22.793Z,99.99
2019-04-12T00:58:16.905Z,99.99
2019-04-12T00:59:17.288Z,99.99
2019-04-12T01:01:09.307Z,99.99
2019-04-12T01:02:09.229Z,99.99
2019-04-12T01:04:01.702Z,99.99
2019-04-12T01:05:01.507Z,99.99
2019-04-12T01:06:54.327Z,99.99
2019-04-12T01:07:54.211Z,99.99
2019-04-12T01:09:46.987Z,99.99
2019-04-12T01:10:46.945Z,99.99
2019-04-12T01:12:39.674Z,99.99
2019-04-12T01:13:39.928Z,99.99
2019-04-12T01:15:32.379Z,99.99
2019-04-12T01:16:32.287Z,99.99
2019-04-12T01:18:25.046Z,99.99
2019-04-12T01:19:24.971Z,99.99
2019-04-12T01:21:17.739Z,99.99
2019-04-12T01:22:17.670Z,99.99
2019-04-12T01:24:10.767Z,99.99
2019-04-12T01:25:13.440Z,99.99
2019-04-12T01:27:03.125Z,99.99
2019-04-12T01:28:03.097Z,99.99
2019-04-12T01:29:55.792Z,99.99
2019-04-12T01:30:55.732Z,99.99
2019-04-12T01:32:48.520Z,99.99
2019-04-12T01:33:48.477Z,99.99
2019-04-12T01:35:41.187Z,99.99
2019-04-12T01:36:41.110Z,99.99
2019-04-12T01:38:33.893Z,99.99
2019-04-12T01:39:33.806Z,99.99
2019-04-12T01:41:26.567Z,99.99
2019-04-12T01:42:26.489Z,99.99
2019-04-12T01:44:19.264Z,99.99
2019-04-12T01:45:19.169Z,99.99
2019-04-12T01:47:12.107Z,99.99
2019-04-12T01:48:11.886Z,99.99
2019-04-12T01:50:04.685Z,99.99
2019-04-12T01:51:04.589Z,99.99
2019-04-12T01:52:57.362Z,99.99
2019-04-12T01:53:57.283Z,99.99
2019-04-12T01:56:14.353Z,99.99
2019-04-12T01:57:14.285Z,99.99
2019-04-12T01:59:07.049Z,99.99
2019-04-12T02:00:06.957Z,99.99
2019-04-12T02:01:59.706Z,99.99
2019-04-12T02:02:59.651Z,99.99
2019-04-12T02:04:52.455Z,99.99
2019-04-12T02:05:52.335Z,99.99
2019-04-12T02:07:45.136Z,99.99
2019-04-12T02:08:45.025Z,99.99
2019-04-12T02:10:37.778Z,99.99
2019-04-12T02:11:37.695Z,99.99
2019-04-12T02:13:30.459Z,99.99
2019-04-12T02:14:30.377Z,99.99
2019-04-12T02:16:23.136Z,99.99
2019-04-12T02:17:23.067Z,99.99
2019-04-12T02:19:15.824Z,99.99
2019-04-12T02:20:15.756Z,99.99
2019-04-12T02:22:08.531Z,99.99
2019-04-12T02:23:08.480Z,99.99
2019-04-12T02:25:01.222Z,99.99
2019-04-12T02:26:01.174Z,99.99
2019-04-12T02:27:53.912Z,99.99
2019-04-12T02:28:53.873Z,99.99
2019-04-12T02:30:46.618Z,99.99
2019-04-12T02:31:46.542Z,99.99
2019-04-12T02:33:39.319Z,99.99
2019-04-12T02:34:39.226Z,99.99
2019-04-12T02:36:32.034Z,99.99
2019-04-12T02:37:31.962Z,99.99
2019-04-12T02:39:24.729Z,99.99
2019-04-12T02:40:24.671Z,99.99
2019-04-12T02:42:17.405Z,99.99
2019-04-12T02:43:17.336Z,99.99
2019-04-12T02:45:10.155Z,99.99
2019-04-12T02:46:10.060Z,99.99
2019-04-12T02:48:02.839Z,99.99
2019-04-12T02:49:02.765Z,99.99
2019-04-12T02:50:55.548Z,99.99
2019-04-12T02:51:55.460Z,99.99
2019-04-12T02:53:48.229Z,99.99
2019-04-12T02:54:48.155Z,99.99
2019-04-12T02:56:40.920Z,99.99
2019-04-12T02:57:40.858Z,99.99
2019-04-12T02:59:33.621Z,99.99
2019-04-12T03:00:33.544Z,99.99
2019-04-12T03:02:26.298Z,99.99
2019-04-12T03:03:26.222Z,99.99
2019-04-12T03:05:18.988Z,99.99
2019-04-12T03:06:18.909Z,99.99
2019-04-12T03:08:11.942Z,99.99
2019-04-12T03:09:11.596Z,99.99
2019-04-12T03:11:04.376Z,99.99
2019-04-12T03:12:04.288Z,99.99
2019-04-12T03:13:57.064Z,99.99
2019-04-12T03:14:56.978Z,99.99
2019-04-12T03:16:49.741Z,99.99
2019-04-12T03:17:49.707Z,99.99
2019-04-12T03:19:42.445Z,99.99
2019-04-12T03:20:42.364Z,99.99
2019-04-12T03:22:35.137Z,99.99
2019-04-12T03:23:35.075Z,99.99
2019-04-12T03:25:27.848Z,99.99
2019-04-12T03:26:27.755Z,99.99
2019-04-12T03:28:20.511Z,99.99
2019-04-12T03:29:20.435Z,99.99
2019-04-12T03:31:13.191Z,99.99
2019-04-12T03:32:13.116Z,99.99
2019-04-12T03:34:05.901Z,99.99
2019-04-12T03:35:05.837Z,99.99
2019-04-12T03:36:58.674Z,99.99
2019-04-12T03:37:58.541Z,99.99
2019-04-12T03:39:51.322Z,99.99
2019-04-12T03:40:51.227Z,99.99
2019-04-12T03:42:43.982Z,99.99
2019-04-12T03:43:43.924Z,99.99
2019-04-12T03:45:36.674Z,99.99
2019-04-12T03:46:36.592Z,99.99
2019-04-12T03:48:29.353Z,99.99
2019-04-12T03:49:29.278Z,99.99
2019-04-12T03:51:22.078Z,99.99
2019-04-12T03:52:21.990Z,99.99
2019-04-12T03:54:14.943Z,99.99
2019-04-12T03:55:14.671Z,99.99
2019-04-12T03:57:07.446Z,99.99
2019-04-12T03:58:07.382Z,99.99
2019-04-12T04:00:00.126Z,99.99
2019-04-12T04:01:00.057Z,99.99
2019-04-12T04:02:52.816Z,99.99
2019-04-12T04:03:52.734Z,99.99
2019-04-12T04:05:45.490Z,99.99
2019-04-12T04:06:45.413Z,99.99
2019-04-12T04:08:38.184Z,99.99
2019-04-12T04:09:38.236Z,99.99
2019-04-12T04:11:30.874Z,99.99
2019-04-12T04:12:30.797Z,99.99
2019-04-12T04:14:23.564Z,99.99
2019-04-12T04:15:23.463Z,99.99
2019-04-12T04:17:16.246Z,99.99
2019-04-12T04:18:16.160Z,99.99
2019-04-12T04:20:08.997Z,99.99
2019-04-12T04:21:08.959Z,99.99
2019-04-12T04:23:01.712Z,99.99
2019-04-12T04:24:01.702Z,99.99
2019-04-12T04:25:54.386Z,99.99
2019-04-12T04:26:54.303Z,99.99
2019-04-12T04:28:47.155Z,99.99
2019-04-12T04:29:47.011Z,99.99
2019-04-12T04:31:39.782Z,99.99
2019-04-12T04:32:39.706Z,99.99
2019-04-12T04:34:32.503Z,99.99
2019-04-12T04:35:32.421Z,99.99
2019-04-12T04:37:25.278Z,99.99
2019-04-12T04:38:26.810Z,99.99
2019-04-12T04:40:18.006Z,99.99
2019-04-12T04:41:17.930Z,99.99
2019-04-12T04:43:10.676Z,99.99
2019-04-12T04:44:10.592Z,99.99
2019-04-12T04:46:03.346Z,99.99
2019-04-12T04:47:03.292Z,99.99
2019-04-12T04:48:56.123Z,99.99
2019-04-12T04:49:56.034Z,99.99
2019-04-12T04:51:48.815Z,99.99
2019-04-12T04:52:48.741Z,99.99
2019-04-12T04:54:41.474Z,99.99
2019-04-12T04:55:41.398Z,99.99
2019-04-12T04:57:34.192Z,99.99
2019-04-12T04:58:34.120Z,99.99
2019-04-12T05:00:26.874Z,99.99
2019-04-12T05:01:26.841Z,99.99
2019-04-12T05:03:19.555Z,99.99
2019-04-12T05:04:19.474Z,99.99
2019-04-12T05:06:12.239Z,99.99
2019-04-12T05:07:12.166Z,99.99
2019-04-12T05:09:04.941Z,99.99
2019-04-12T05:10:04.874Z,99.99
2019-04-12T05:11:57.616Z,99.99
2019-04-12T05:12:57.541Z,99.99
2019-04-12T05:14:50.319Z,99.99
2019-04-12T05:15:50.230Z,99.99
2019-04-12T05:17:43.032Z,99.99
2019-04-12T05:18:42.944Z,99.99
2019-04-12T05:20:35.738Z,99.99
2019-04-12T05:21:35.634Z,99.99
2019-04-12T05:23:28.407Z,99.99
2019-04-12T05:24:28.316Z,99.99
2019-04-12T05:26:21.105Z,99.99
2019-04-12T05:27:21.015Z,99.99
2019-04-12T05:29:13.855Z,99.99
2019-04-12T05:30:13.719Z,99.99
2019-04-12T05:32:06.485Z,99.99
2019-04-12T05:33:06.432Z,99.99
2019-04-12T05:34:59.205Z,99.99
2019-04-12T05:35:59.142Z,99.99
2019-04-12T05:37:51.890Z,99.99
2019-04-12T05:38:51.808Z,99.99
2019-04-12T05:40:44.596Z,99.99
2019-04-12T05:41:44.537Z,99.99
2019-04-12T05:43:37.308Z,99.99
2019-04-12T05:44:37.222Z,99.99
2019-04-12T05:46:30.004Z,99.99
2019-04-12T05:47:29.927Z,99.99
2019-04-12T05:49:22.716Z,99.99
2019-04-12T05:50:22.702Z,99.99
2019-04-12T05:52:15.408Z,99.99
2019-04-12T05:53:15.329Z,99.99
2019-04-12T05:55:08.119Z,99.99
2019-04-12T05:56:08.023Z,99.99
2019-04-12T05:58:00.821Z,99.99
2019-04-12T05:59:00.743Z,99.99
2019-04-12T06:00:53.508Z,99.99
2019-04-12T06:01:53.431Z,99.99
2019-04-12T06:03:46.327Z,99.99
2019-04-12T06:04:46.242Z,99.99
2019-04-12T06:06:39.016Z,99.99
2019-04-12T06:07:38.944Z,99.99
2019-04-12T06:09:31.721Z,99.99
2019-04-12T06:10:31.630Z,99.99
2019-04-12T06:12:24.451Z,99.99
2019-04-12T06:13:24.317Z,99.99
2019-04-12T06:15:17.159Z,99.99
2019-04-12T06:16:17.075Z,99.99
2019-04-12T06:18:09.958Z,99.99
2019-04-12T06:19:09.825Z,99.99
2019-04-12T06:21:02.609Z,99.99
2019-04-12T06:22:02.529Z,99.99
2019-04-12T06:23:55.276Z,99.99
2019-04-12T06:24:55.196Z,99.99
2019-04-12T06:26:47.985Z,99.99
2019-04-12T06:27:47.888Z,99.99
2019-04-12T06:29:40.662Z,99.99
2019-04-12T06:30:40.583Z,99.99
2019-04-12T06:32:33.357Z,99.99
2019-04-12T06:33:33.270Z,99.99
2019-04-12T06:35:26.056Z,99.99
2019-04-12T06:36:25.977Z,99.99
2019-04-12T06:38:18.740Z,99.99
2019-04-12T06:39:18.658Z,99.99
2019-04-12T06:41:13.024Z,99.99
2019-04-12T06:42:11.363Z,99.99
2019-04-12T06:44:04.177Z,99.53
2019-04-12T06:45:04.057Z,99.72
2019-04-12T06:46:56.818Z,99.99
2019-04-12T06:47:56.767Z,99.72
2019-04-12T06:49:49.518Z,99.44
2019-04-12T06:50:49.440Z,99.53
2019-04-12T06:52:42.219Z,98.68
2019-04-12T06:53:42.133Z,99.25
2019-04-12T06:55:34.906Z,99.63
2019-04-12T06:56:34.831Z,98.87
2019-04-12T06:58:27.611Z,98.49
2019-04-12T06:59:27.544Z,99.25
2019-04-12T07:01:20.309Z,98.58
2019-04-12T07:02:20.271Z,99.01
2019-04-12T07:04:13.090Z,98.77
2019-04-12T07:05:12.919Z,98.77
2019-04-12T07:07:05.785Z,98.58
2019-04-12T07:08:06.008Z,98.96
2019-04-12T07:09:58.524Z,98.44
2019-04-12T07:10:58.445Z,98.92
2019-04-12T07:12:51.254Z,98.58
2019-04-12T07:13:51.159Z,98.92
2019-04-12T07:15:43.924Z,99.01
2019-04-12T07:16:43.838Z,99.01
2019-04-12T07:18:36.615Z,97.88
2019-04-12T07:19:36.554Z,97.31
2019-04-12T07:21:29.347Z,97.31
2019-04-12T07:22:29.257Z,95.79
2019-04-12T07:24:22.127Z,97.31
2019-04-12T07:25:22.036Z,96.08
2019-04-12T07:27:15.048Z,95.22
2019-04-12T07:28:17.732Z,96.17
2019-04-12T07:30:07.762Z,96.08
2019-04-12T07:31:07.696Z,96.31
2019-04-12T07:33:00.504Z,95.17
2019-04-12T07:34:02.645Z,95.74
2019-04-12T07:35:53.199Z,93.56
2019-04-12T07:36:53.092Z,92.80
2019-04-12T07:38:45.877Z,92.52
2019-04-12T07:39:45.792Z,91.38
2019-04-12T07:41:38.732Z,89.95
2019-04-12T07:42:38.555Z,89.39
2019-04-12T07:44:31.407Z,89.43
2019-04-12T07:45:31.357Z,89.33
2019-04-12T07:47:24.161Z,88.76
2019-04-12T07:48:24.048Z,88.39
2019-04-12T07:50:16.855Z,86.68
2019-04-12T07:51:16.773Z,86.58
2019-04-12T07:53:10.976Z,84.68
2019-04-12T07:54:10.881Z,84.68
2019-04-12T07:56:03.628Z,85.53
2019-04-12T07:57:03.646Z,84.01
2019-04-12T07:58:56.413Z,84.30
2019-04-12T07:59:56.405Z,84.30
2019-04-12T08:01:49.196Z,82.59
2019-04-12T08:02:48.994Z,81.93
2019-04-12T08:04:41.816Z,81.74
2019-04-12T08:05:41.738Z,81.36
2019-04-12T08:07:34.674Z,82.88
2019-04-12T08:08:34.660Z,83.45
2019-04-12T08:10:27.425Z,83.26
2019-04-12T08:11:27.542Z,83.16
2019-04-12T08:13:20.117Z,82.69
2019-04-12T08:14:20.052Z,82.69
2019-04-12T08:16:13.144Z,82.27
2019-04-12T08:17:13.035Z,82.74
2019-04-12T08:19:05.804Z,82.46
2019-04-12T08:20:05.719Z,83.40
2019-04-12T08:21:58.525Z,82.36
2019-04-12T08:22:58.454Z,83.12
2019-04-12T08:24:51.444Z,83.78
2019-04-12T08:25:51.294Z,84.17
2019-04-12T08:27:44.445Z,82.55
2019-04-12T08:28:44.257Z,85.11
2019-04-12T08:30:37.028Z,83.54
2019-04-12T08:31:37.093Z,82.31
2019-04-12T08:33:29.758Z,82.46
2019-04-12T08:34:29.587Z,82.50
2019-04-12T08:36:22.483Z,82.50
2019-04-12T08:37:22.573Z,82.40
2019-04-12T08:39:15.162Z,81.84
2019-04-12T08:40:15.081Z,82.50
2019-04-12T08:42:08.881Z,81.55
2019-04-12T08:43:08.075Z,81.88
2019-04-12T08:45:00.613Z,81.93
2019-04-12T08:46:00.662Z,81.74
2019-04-12T08:47:53.333Z,82.31
2019-04-12T08:48:53.241Z,82.40
2019-04-12T08:50:46.009Z,80.88
2019-04-12T08:51:45.949Z,80.69
2019-04-12T08:53:38.829Z,80.88
2019-04-12T08:54:38.681Z,80.41
2019-04-12T08:56:31.554Z,80.60
2019-04-12T08:57:31.504Z,80.32
2019-04-12T08:59:24.312Z,80.51
2019-04-12T09:00:24.200Z,81.36
2019-04-12T09:02:17.126Z,79.94
2019-04-12T09:03:16.899Z,79.46
2019-04-12T09:05:09.680Z,79.08
2019-04-12T09:06:09.646Z,79.94
2019-04-12T09:08:02.699Z,79.33
2019-04-12T09:09:02.625Z,80.08
2019-04-12T09:10:55.522Z,80.69
2019-04-12T09:11:55.385Z,80.65
2019-04-12T09:13:48.137Z,81.26
2019-04-12T09:14:48.284Z,80.88
2019-04-12T09:16:40.919Z,80.79
2019-04-12T09:17:40.803Z,80.22
2019-04-12T09:19:33.589Z,80.13
2019-04-12T09:20:33.533Z,80.13
2019-04-12T09:22:26.498Z,79.17
2019-04-12T09:23:26.261Z,80.98
2019-04-12T09:25:19.058Z,80.13
2019-04-12T09:26:18.995Z,78.70
2019-04-12T09:28:24.068Z,79.94
2019-04-12T09:29:11.853Z,79.55
2019-04-12T09:31:04.556Z,80.79
2019-04-12T09:32:04.432Z,80.79
2019-04-12T09:33:57.679Z,78.13
2019-04-12T09:34:57.520Z,78.99
2019-04-12T09:36:50.292Z,78.64
2019-04-12T09:37:50.211Z,78.45
2019-04-12T09:39:43.058Z,77.60
2019-04-12T09:40:42.926Z,77.22
2019-04-12T09:42:35.711Z,77.12
2019-04-12T09:43:35.627Z,76.71
2019-04-12T09:45:28.421Z,77.56
2019-04-12T09:46:28.348Z,77.84
2019-04-12T09:48:21.157Z,78.64
2019-04-12T09:49:21.444Z,77.98
2019-04-12T09:51:14.326Z,76.56
2019-04-12T09:52:13.769Z,76.18
2019-04-12T09:54:06.926Z,75.70
2019-04-12T09:55:06.496Z,75.60
2019-04-12T09:56:59.339Z,76.46
2019-04-12T09:57:59.242Z,77.09
2019-04-12T09:59:52.024Z,77.70
2019-04-12T10:00:51.954Z,77.89
2019-04-12T10:02:44.783Z,77.60
2019-04-12T10:03:44.716Z,76.84
2019-04-12T10:05:37.473Z,76.93
2019-04-12T10:06:37.360Z,76.90
2019-04-12T10:08:30.148Z,77.18
2019-04-12T10:09:30.071Z,77.75
2019-04-12T10:11:22.855Z,78.64
2019-04-12T10:12:22.790Z,77.60
2019-04-12T10:14:15.569Z,77.51
2019-04-12T10:15:15.501Z,77.22
2019-04-12T10:17:08.303Z,77.41
2019-04-12T10:18:08.193Z,76.84
2019-04-12T10:20:01.013Z,77.03
2019-04-12T10:21:01.007Z,77.41
2019-04-12T10:22:53.740Z,76.65
2019-04-12T10:23:53.687Z,76.93
2019-04-12T10:25:46.555Z,77.22
2019-04-12T10:26:46.374Z,77.41
2019-04-12T10:28:49.478Z,77.31
2019-04-12T10:29:39.087Z,77.47
2019-04-12T10:31:31.842Z,78.13
2019-04-12T10:32:31.787Z,78.80
2019-04-12T10:34:25.482Z,79.65
2019-04-12T10:35:24.496Z,79.65
2019-04-12T10:37:17.277Z,80.03
2019-04-12T10:38:17.197Z,79.08
2019-04-12T10:40:11.081Z,80.27
2019-04-12T10:41:09.992Z,80.60
2019-04-12T10:43:02.797Z,80.79
2019-04-12T10:44:02.739Z,80.22
2019-04-12T10:45:55.552Z,79.94
2019-04-12T10:46:55.463Z,79.94
2019-04-12T10:48:48.250Z,80.88
2019-04-12T10:49:48.288Z,80.69
2019-04-12T10:51:41.072Z,81.17
2019-04-12T10:52:40.959Z,81.45
2019-04-12T10:54:34.138Z,81.17
2019-04-12T10:55:33.728Z,81.74
2019-04-12T10:57:26.427Z,82.31
2019-04-12T10:58:26.369Z,82.21
2019-04-12T11:00:19.224Z,82.31
2019-04-12T11:01:19.125Z,82.69
2019-04-12T11:03:12.047Z,82.50
2019-04-12T11:04:11.908Z,82.31
2019-04-12T11:06:04.748Z,83.16
2019-04-12T11:07:04.668Z,83.64
2019-04-12T11:08:57.417Z,83.64
2019-04-12T11:09:57.358Z,83.54
2019-04-12T11:11:50.156Z,83.36
2019-04-12T11:12:50.119Z,84.21
2019-04-12T11:14:41.970Z,84.30
2019-04-12T11:15:41.872Z,85.06
2019-04-12T11:17:34.640Z,85.25
2019-04-12T11:18:34.567Z,84.97
2019-04-12T11:20:27.382Z,85.68
2019-04-12T11:21:27.303Z,85.20
2019-04-12T11:23:20.063Z,85.58
2019-04-12T11:24:19.986Z,85.30
2019-04-12T11:26:12.892Z,85.53
2019-04-12T11:27:12.699Z,86.30
2019-04-12T11:29:16.399Z,86.30
2019-04-12T11:30:05.415Z,85.25
2019-04-12T11:31:58.226Z,85.58
2019-04-12T11:32:58.149Z,85.49
2019-04-12T11:34:50.971Z,85.53
2019-04-12T11:35:50.931Z,86.87
2019-04-12T11:37:43.670Z,87.48
2019-04-12T11:38:43.646Z,86.63
2019-04-12T11:40:36.395Z,86.63
2019-04-12T11:41:36.300Z,85.68
2019-04-12T11:43:29.115Z,85.58
2019-04-12T11:44:29.049Z,85.20
2019-04-12T11:46:21.830Z,83.78
2019-04-12T11:47:21.747Z,83.83
2019-04-12T11:49:14.572Z,85.44
2019-04-12T11:50:14.503Z,85.63
2019-04-12T11:52:07.256Z,86.49
2019-04-12T11:53:07.175Z,87.15
2019-04-12T11:55:00.114Z,86.34
2019-04-12T11:55:59.942Z,85.68
2019-04-12T11:57:52.788Z,84.67
2019-04-12T11:58:52.641Z,83.87
2019-04-12T12:00:45.424Z,83.78
2019-04-12T12:01:45.347Z,83.78
2019-04-12T12:03:38.115Z,83.30
2019-04-12T12:04:38.042Z,82.92
2019-04-12T12:06:30.982Z,82.73
2019-04-12T12:07:30.869Z,83.49
2019-04-12T12:09:23.690Z,82.77
2019-04-12T12:10:23.626Z,82.49
2019-04-12T12:12:16.466Z,81.92
2019-04-12T12:13:16.407Z,82.20
2019-04-12T12:15:09.219Z,81.67
2019-04-12T12:16:09.136Z,81.86
2019-04-12T12:18:01.949Z,81.06
2019-04-12T12:19:01.870Z,81.63
2019-04-12T12:20:54.648Z,82.54
2019-04-12T12:21:54.578Z,82.26
2019-04-12T12:23:47.452Z,83.30
2019-04-12T12:24:47.491Z,82.64
2019-04-12T12:26:40.599Z,83.39
2019-04-12T12:27:41.376Z,83.49
2019-04-12T12:29:42.289Z,81.59
2019-04-12T12:30:32.996Z,80.55
2019-04-12T12:32:25.835Z,80.74
2019-04-12T12:33:25.683Z,81.68
2019-04-12T12:35:18.486Z,80.58
2019-04-12T12:36:18.405Z,80.49
2019-04-12T12:38:11.655Z,79.79
2019-04-12T12:39:11.123Z,80.16
2019-04-12T12:41:03.911Z,80.93
2019-04-12T12:42:04.067Z,81.97
2019-04-12T12:43:56.762Z,82.35
2019-04-12T12:44:56.631Z,82.35
2019-04-12T12:46:49.351Z,81.30
2019-04-12T12:47:49.292Z,81.49
2019-04-12T12:49:42.266Z,82.64
2019-04-12T12:50:42.126Z,82.35
2019-04-12T12:52:35.039Z,81.87
2019-04-12T12:53:34.952Z,80.93
2019-04-12T12:55:27.717Z,79.97
2019-04-12T12:56:27.788Z,79.03
2019-04-12T12:58:20.522Z,78.93
2019-04-12T12:59:20.426Z,79.79
2019-04-12T13:01:13.259Z,80.07
2019-04-12T13:02:13.177Z,80.64
2019-04-12T13:04:05.977Z,80.74
2019-04-12T13:05:05.873Z,81.30
2019-04-12T13:06:58.736Z,81.68
2019-04-12T13:07:58.589Z,81.59
2019-04-12T13:09:51.396Z,82.35
2019-04-12T13:10:51.314Z,82.07
2019-04-12T13:12:44.101Z,82.58
2019-04-12T13:13:44.072Z,81.54
2019-04-12T13:15:36.801Z,80.64
2019-04-12T13:16:37.361Z,80.93
2019-04-12T13:18:29.691Z,81.97
2019-04-12T13:19:29.449Z,81.59
2019-04-12T13:21:22.203Z,81.21
2019-04-12T13:22:22.136Z,81.97
2019-04-12T13:24:14.910Z,80.69
2019-04-12T13:25:16.798Z,80.60
2019-04-12T13:27:07.613Z,80.41
2019-04-12T13:28:07.540Z,80.60
2019-04-12T13:30:06.575Z,80.93
2019-04-12T13:31:01.145Z,81.59
2019-04-12T13:32:53.914Z,81.49
2019-04-12T13:33:53.849Z,81.59
2019-04-12T13:35:46.704Z,81.21
2019-04-12T13:36:46.599Z,81.59
2019-04-12T13:38:39.403Z,81.68
2019-04-12T13:39:39.326Z,81.02
2019-04-12T13:41:32.118Z,81.21
2019-04-12T13:42:31.994Z,81.49
2019-04-12T13:44:24.826Z,82.45
2019-04-12T13:45:24.685Z,82.54
2019-04-12T13:47:17.608Z,83.39
2019-04-12T13:48:17.486Z,83.01
2019-04-12T13:50:10.228Z,82.45
2019-04-12T13:51:10.207Z,81.87
2019-04-12T13:53:02.969Z,82.35
2019-04-12T13:54:02.873Z,82.64
2019-04-12T13:55:55.634Z,82.73
2019-04-12T13:56:55.552Z,82.92
2019-04-12T13:58:48.397Z,82.12
2019-04-12T13:59:48.470Z,82.97
2019-04-12T14:01:41.072Z,82.50
2019-04-12T14:02:41.000Z,82.59
2019-04-12T14:04:33.820Z,82.40
2019-04-12T14:05:33.751Z,83.26
2019-04-12T14:07:26.647Z,82.69
2019-04-12T14:08:26.486Z,82.78
2019-04-12T14:10:19.275Z,83.26
2019-04-12T14:11:19.170Z,83.36
2019-04-12T14:13:11.981Z,83.59
2019-04-12T14:14:11.895Z,83.26
2019-04-12T14:16:04.678Z,83.45
2019-04-12T14:17:04.635Z,82.31
2019-04-12T14:18:57.379Z,83.07
2019-04-12T14:19:57.306Z,83.73
2019-04-12T14:21:50.107Z,84.21
2019-04-12T14:22:50.034Z,84.40
2019-04-12T14:24:42.804Z,84.59
2019-04-12T14:25:42.707Z,84.82
2019-04-12T14:27:35.506Z,85.16
2019-04-12T14:28:35.483Z,86.20
2019-04-12T14:30:33.139Z,87.15
2019-04-12T14:31:28.283Z,87.72
2019-04-12T14:33:20.953Z,87.91
2019-04-12T14:34:20.842Z,88.48
2019-04-12T14:36:13.623Z,88.76
2019-04-12T14:37:13.526Z,89.05
2019-04-12T14:39:06.302Z,89.24
2019-04-12T14:40:06.223Z,88.57
2019-04-12T14:41:59.003Z,88.01
2019-04-12T14:42:58.923Z,87.62
2019-04-12T14:44:51.696Z,88.48
2019-04-12T14:45:51.617Z,88.48
2019-04-12T14:47:44.394Z,88.10
2019-04-12T14:48:44.317Z,87.43
2019-04-12T14:50:37.105Z,87.34
2019-04-12T14:51:37.021Z,88.29
2019-04-12T14:53:29.784Z,87.24
2019-04-12T14:54:29.708Z,87.15
2019-04-12T14:56:22.499Z,87.72
2019-04-12T14:57:22.413Z,86.77
2019-04-12T14:59:15.227Z,86.96
2019-04-12T15:00:15.119Z,87.34
2019-04-12T15:02:07.902Z,86.87
2019-04-12T15:03:07.835Z,87.34
2019-04-12T15:05:00.610Z,86.30
2019-04-12T15:06:00.521Z,86.20
2019-04-12T15:07:53.311Z,85.25
2019-04-12T15:08:53.208Z,85.06
2019-04-12T15:10:45.999Z,85.72
2019-04-12T15:11:45.902Z,86.20
2019-04-12T15:13:38.656Z,86.68
2019-04-12T15:14:38.590Z,86.68
2019-04-12T15:16:33.510Z,86.01
2019-04-12T15:17:31.282Z,85.53
2019-04-12T15:19:24.062Z,85.53
2019-04-12T15:20:24.009Z,85.44
2019-04-12T15:22:16.742Z,85.25
2019-04-12T15:23:16.675Z,84.59
2019-04-12T15:25:09.464Z,86.20
2019-04-12T15:26:09.391Z,85.44
2019-04-12T15:28:02.215Z,85.63
2019-04-12T15:29:02.145Z,85.63
2019-04-12T15:30:58.362Z,84.68
2019-04-12T15:31:54.899Z,84.78
2019-04-12T15:33:47.665Z,85.35
2019-04-12T15:34:47.588Z,85.72
2019-04-12T15:36:40.394Z,85.63
2019-04-12T15:37:40.306Z,85.35
2019-04-12T15:39:33.094Z,85.44
2019-04-12T15:40:33.000Z,85.25
2019-04-12T15:42:25.804Z,86.39
2019-04-12T15:43:25.703Z,86.30
2019-04-12T15:45:18.509Z,86.01
2019-04-12T15:46:18.433Z,86.20
2019-04-12T15:48:11.198Z,87.05
2019-04-12T15:49:11.142Z,87.72
2019-04-12T15:51:03.896Z,87.34
2019-04-12T15:52:03.825Z,88.29
2019-04-12T15:53:56.603Z,88.39
2019-04-12T15:54:56.506Z,88.95
2019-04-12T15:56:49.393Z,89.53
2019-04-12T15:57:49.312Z,89.86
2019-04-12T15:59:42.062Z,90.05
2019-04-12T16:00:41.989Z,90.52
2019-04-12T16:02:34.841Z,91.19
2019-04-12T16:03:34.690Z,91.09
2019-04-12T16:05:27.442Z,91.33
2019-04-12T16:06:27.368Z,91.42
2019-04-12T16:08:20.937Z,92.18
2019-04-12T16:09:20.056Z,92.09
2019-04-12T16:11:12.871Z,93.70
2019-04-12T16:12:12.785Z,93.99
2019-04-12T16:14:05.560Z,93.89
2019-04-12T16:15:05.493Z,93.70
2019-04-12T16:16:58.269Z,93.60
2019-04-12T16:17:58.186Z,93.23
2019-04-12T16:19:50.994Z,92.90
2019-04-12T16:20:50.911Z,93.65
2019-04-12T16:22:43.702Z,94.03
2019-04-12T16:23:43.610Z,94.23
2019-04-12T16:25:36.385Z,94.51
2019-04-12T16:26:36.310Z,93.37
2019-04-12T16:28:29.065Z,94.23
2019-04-12T16:29:28.995Z,94.23
2019-04-12T16:31:23.940Z,94.42
2019-04-12T16:32:21.744Z,94.32
2019-04-12T16:34:14.534Z,95.17
2019-04-12T16:35:14.448Z,95.07
2019-04-12T16:37:07.288Z,94.79
2019-04-12T16:38:07.244Z,94.98
2019-04-12T16:39:59.974Z,94.79
2019-04-12T16:40:59.896Z,94.98
2019-04-12T16:42:52.658Z,94.79
2019-04-12T16:43:52.574Z,94.98
2019-04-12T16:45:45.348Z,95.27
2019-04-12T16:46:45.269Z,95.74
2019-04-12T16:48:38.044Z,96.03
2019-04-12T16:49:37.980Z,94.98
2019-04-12T16:51:30.731Z,95.93
2019-04-12T16:52:30.665Z,95.55
2019-04-12T16:54:23.427Z,96.41
2019-04-12T16:55:23.356Z,95.55
2019-04-12T16:57:16.129Z,96.12
2019-04-12T16:58:16.039Z,95.93
2019-04-12T17:00:08.812Z,96.12
2019-04-12T17:01:08.769Z,96.03
2019-04-12T17:03:01.601Z,95.84
2019-04-12T17:04:01.458Z,96.50
2019-04-12T17:05:54.314Z,95.74
2019-04-12T17:06:54.183Z,96.31
2019-04-12T17:08:46.956Z,96.12
2019-04-12T17:09:46.872Z,95.93
2019-04-12T17:11:39.665Z,96.41
2019-04-12T17:12:39.585Z,96.03
2019-04-12T17:14:32.338Z,96.41
2019-04-12T17:15:32.280Z,95.74
2019-04-12T17:17:25.060Z,96.22
2019-04-12T17:18:24.959Z,96.12
2019-04-12T17:20:17.820Z,96.03
2019-04-12T17:21:17.678Z,96.12
2019-04-12T17:23:10.471Z,95.84
2019-04-12T17:24:10.373Z,95.84
2019-04-12T17:26:05.934Z,96.12
2019-04-12T17:27:03.072Z,96.69
2019-04-12T17:28:55.874Z,96.12
2019-04-12T17:29:55.782Z,95.65
2019-04-12T17:31:49.510Z,96.41
2019-04-12T17:32:48.483Z,95.65
2019-04-12T17:34:44.088Z,95.93
2019-04-12T17:35:41.238Z,95.74
2019-04-12T17:37:33.939Z,96.31
2019-04-12T17:38:33.929Z,95.65
2019-04-12T17:40:26.640Z,95.84
2019-04-12T17:41:26.788Z,96.41
2019-04-12T17:43:19.394Z,96.22
2019-04-12T17:44:19.478Z,95.93
2019-04-12T17:46:12.071Z,96.03
2019-04-12T17:47:11.951Z,95.84
2019-04-12T17:49:04.743Z,95.84
2019-04-12T17:50:04.661Z,96.41
2019-04-12T17:51:58.627Z,96.31
2019-04-12T17:52:57.374Z,96.41
2019-04-12T17:54:50.154Z,95.84
2019-04-12T17:55:50.064Z,96.03
2019-04-12T17:57:42.832Z,96.22
2019-04-12T17:58:42.762Z,96.69
2019-04-12T18:00:35.563Z,96.50
2019-04-12T18:01:35.475Z,96.50
2019-04-12T18:03:28.255Z,95.84
2019-04-12T18:04:28.170Z,96.12
2019-04-12T18:06:20.935Z,96.12
2019-04-12T18:07:20.864Z,96.88
2019-04-12T18:09:13.746Z,96.97
2019-04-12T18:10:13.559Z,96.31
2019-04-12T18:12:06.331Z,96.03
2019-04-12T18:13:06.314Z,96.08
2019-04-12T18:14:59.100Z,96.36
2019-04-12T18:15:59.069Z,96.26
2019-04-12T18:17:51.904Z,96.26
2019-04-12T18:18:51.787Z,97.02
2019-04-12T18:20:44.696Z,97.02
2019-04-12T18:21:44.545Z,97.17
2019-04-12T18:23:37.313Z,97.02
2019-04-12T18:24:37.291Z,96.73
2019-04-12T18:26:30.108Z,97.21
2019-04-12T18:27:30.267Z,96.92
2019-04-12T18:29:24.111Z,97.31
2019-04-12T18:30:24.014Z,97.12
2019-04-12T18:32:17.256Z,97.31